createdAt,value
2023-03-22T00:02:23.158Z,2.60
2023-03-22T00:04:49.945Z,3.33
2023-03-22T00:07:16.731Z,4.03
2023-03-22T00:09:43.556Z,3.50
2023-03-22T00:12:10.487Z,3.50
2023-03-22T00:14:37.316Z,3.28
2023-03-22T00:17:04.204Z,4.53
2023-03-22T00:19:34.177Z,4.35
2023-03-22T00:22:01.348Z,4.63
2023-03-22T00:24:28.047Z,3.67
2023-03-22T00:26:54.779Z,5.55
2023-03-22T00:29:22.928Z,3.97
2023-03-22T00:31:50.346Z,3.90
2023-03-22T00:34:17.076Z,4.68
2023-03-22T00:36:43.864Z,4.10
2023-03-22T00:39:10.666Z,5.07
2023-03-22T00:41:37.406Z,4.93
2023-03-22T00:44:04.124Z,4.05
2023-03-22T00:46:30.849Z,4.32
2023-03-22T00:48:57.586Z,5.25
2023-03-22T00:51:24.587Z,4.00
2023-03-22T00:53:52.429Z,4.68
2023-03-22T00:56:19.668Z,3.72
2023-03-22T00:58:46.458Z,4.72
2023-03-22T01:01:15.904Z,6.47
2023-03-22T01:03:43.864Z,5.07
2023-03-22T01:06:11.628Z,4.50
2023-03-22T01:08:39.487Z,4.03
2023-03-22T01:11:07.708Z,4.72
2023-03-22T01:13:37.881Z,3.83
2023-03-22T01:16:06.345Z,4.57
2023-03-22T01:18:33.113Z,4.75
2023-03-22T01:21:00.508Z,4.55
2023-03-22T01:23:27.279Z,5.63
2023-03-22T01:25:53.962Z,4.53
2023-03-22T01:28:20.888Z,5.13
2023-03-22T01:30:47.705Z,4.40
2023-03-22T01:33:14.464Z,5.50
2023-03-22T01:35:41.201Z,5.32
2023-03-22T01:38:07.920Z,6.05
2023-03-22T01:40:35.117Z,4.82
2023-03-22T01:43:01.937Z,6.22
2023-03-22T01:45:42.606Z,5.35
2023-03-22T01:48:27.302Z,5.07
2023-03-22T01:51:04.577Z,5.57
2023-03-22T01:53:36.705Z,5.20
2023-03-22T01:56:03.890Z,5.93
2023-03-22T01:58:32.048Z,8.30
2023-03-22T02:00:59.524Z,5.45
2023-03-22T02:03:36.965Z,7.97
2023-03-22T02:06:03.796Z,5.82
2023-03-22T02:08:32.445Z,6.30
2023-03-22T02:11:01.630Z,5.50
2023-03-22T02:13:56.232Z,6.05
2023-03-22T02:16:38.485Z,5.25
2023-03-22T02:19:23.880Z,5.13
2023-03-22T02:22:22.042Z,6.15
2023-03-22T02:25:08.018Z,4.88
2023-03-22T02:28:05.076Z,8.38
2023-03-22T02:30:50.020Z,4.13
2023-03-22T02:33:41.573Z,5.63
2023-03-22T02:36:35.556Z,6.32
2023-03-22T02:39:23.472Z,5.72
2023-03-22T02:42:06.974Z,5.88
2023-03-22T02:47:25.565Z,6.40
2023-03-22T02:50:06.268Z,7.13
2023-03-22T02:52:40.943Z,7.97
2023-03-22T02:55:24.243Z,5.50
2023-03-22T02:58:03.695Z,7.75
2023-03-22T03:00:33.402Z,6.32
2023-03-22T03:03:11.489Z,5.55
2023-03-22T03:05:44.975Z,7.00
2023-03-22T03:08:14.040Z,5.25
2023-03-22T03:10:42.373Z,6.43
2023-03-22T03:13:17.387Z,6.38
2023-03-22T03:15:48.875Z,5.93
2023-03-22T03:18:35.229Z,7.00
2023-03-22T03:21:17.900Z,6.72
2023-03-22T03:24:08.870Z,7.03
2023-03-22T03:26:42.030Z,8.80
2023-03-22T03:29:50.803Z,7.97
2023-03-22T03:32:35.325Z,6.50
2023-03-22T03:35:06.879Z,6.18
2023-03-22T03:37:48.423Z,6.93
2023-03-22T03:40:20.954Z,6.30
2023-03-22T03:42:52.826Z,5.82
2023-03-22T03:45:22.306Z,6.85
2023-03-22T03:47:57.040Z,7.03
2023-03-22T03:50:26.012Z,6.55
2023-03-22T03:52:54.829Z,6.80
2023-03-22T03:55:22.793Z,5.43
2023-03-22T03:57:49.578Z,6.00
2023-03-22T04:00:17.753Z,6.15
2023-03-22T04:02:45.123Z,6.13
2023-03-22T04:05:13.521Z,5.97
2023-03-22T04:07:40.681Z,6.60
2023-03-22T04:10:08.626Z,5.45
2023-03-22T04:12:35.753Z,5.78
2023-03-22T04:15:02.714Z,6.18
2023-03-22T04:17:29.461Z,5.85
2023-03-22T04:19:56.753Z,6.95
2023-03-22T04:22:25.156Z,6.82
2023-03-22T04:24:51.871Z,6.25
2023-03-22T04:27:20.611Z,6.75
2023-03-22T04:29:51.286Z,6.63
2023-03-22T04:32:19.236Z,5.93
2023-03-22T04:34:49.203Z,5.18
2023-03-22T04:37:16.722Z,6.75
2023-03-22T04:39:44.047Z,6.30
2023-03-22T04:42:10.847Z,5.70
2023-03-22T04:44:37.565Z,6.25
2023-03-22T04:47:04.533Z,5.40
2023-03-22T04:49:31.581Z,6.00
2023-03-22T04:51:58.603Z,5.72
2023-03-22T04:54:25.849Z,6.57
2023-03-22T04:56:52.888Z,7.43
2023-03-22T04:59:20.456Z,7.68
2023-03-22T05:01:48.507Z,7.07
2023-03-22T05:04:16.628Z,6.05
2023-03-22T05:06:43.459Z,6.03
2023-03-22T05:09:10.590Z,5.38
2023-03-22T05:11:37.809Z,4.60
2023-03-22T05:14:04.900Z,4.43
2023-03-22T05:16:31.713Z,4.88
2023-03-22T05:18:58.557Z,4.45
2023-03-22T05:21:28.625Z,4.43
2023-03-22T05:23:58.106Z,4.28
2023-03-22T05:26:26.596Z,5.28
2023-03-22T05:28:54.395Z,3.72
2023-03-22T05:31:22.399Z,3.70
2023-03-22T05:33:50.649Z,2.85
2023-03-22T05:36:19.311Z,3.05
2023-03-22T05:38:46.818Z,2.78
2023-03-22T05:41:14.582Z,2.35
2023-03-22T05:43:42.085Z,2.83
2023-03-22T05:46:11.205Z,2.42
2023-03-22T05:48:39.869Z,2.00
2023-03-22T05:51:07.861Z,1.98
2023-03-22T05:53:35.461Z,1.83
2023-03-22T05:56:02.362Z,1.80
2023-03-22T05:58:30.951Z,1.73
2023-03-22T06:01:01.204Z,1.65
2023-03-22T06:03:28.654Z,1.33
2023-03-22T06:05:55.437Z,1.52
2023-03-22T06:08:26.558Z,1.50
2023-03-22T06:10:54.249Z,1.40
2023-03-22T06:13:21.368Z,1.48
2023-03-22T06:15:48.262Z,1.80
2023-03-22T06:18:14.995Z,1.83
2023-03-22T06:20:42.221Z,1.60
2023-03-22T06:23:09.113Z,2.20
2023-03-22T06:25:35.940Z,1.90
2023-03-22T06:28:02.995Z,1.83
2023-03-22T06:30:29.798Z,2.30
2023-03-22T06:33:00.667Z,2.35
2023-03-22T06:35:27.939Z,2.05
2023-03-22T06:37:54.739Z,3.10
2023-03-22T06:40:21.522Z,2.38
2023-03-22T06:42:48.429Z,2.40
2023-03-22T06:45:16.648Z,2.55
2023-03-22T06:47:44.575Z,2.97
2023-03-22T06:50:12.048Z,2.15
2023-03-22T06:52:38.853Z,2.53
2023-03-22T06:55:06.020Z,2.67
2023-03-22T06:57:32.795Z,2.53
2023-03-22T06:59:59.486Z,2.35
2023-03-22T07:02:26.206Z,2.85
2023-03-22T07:04:53.023Z,2.88
2023-03-22T07:07:19.722Z,2.65
2023-03-22T07:09:46.542Z,2.40
2023-03-22T07:12:13.233Z,2.78
2023-03-22T07:14:40.492Z,3.00
2023-03-22T07:17:07.250Z,3.03
2023-03-22T07:19:34.265Z,2.58
2023-03-22T07:22:00.992Z,2.92
2023-03-22T07:24:27.774Z,2.20
2023-03-22T07:26:54.479Z,2.58
2023-03-22T07:29:21.569Z,2.83
2023-03-22T07:31:48.451Z,3.10
2023-03-22T07:34:16.397Z,3.17
2023-03-22T07:36:43.259Z,2.70
2023-03-22T07:39:10.067Z,3.13
2023-03-22T07:41:36.890Z,3.10
2023-03-22T07:44:16.978Z,2.97
2023-03-22T07:46:44.745Z,2.95
2023-03-22T07:49:11.563Z,2.97
2023-03-22T07:51:38.317Z,3.38
2023-03-22T07:54:07.582Z,2.58
2023-03-22T07:56:34.589Z,2.10
2023-03-22T07:59:01.416Z,1.80
2023-03-22T08:01:28.462Z,2.90
2023-03-22T08:03:55.329Z,2.83
2023-03-22T08:06:22.058Z,2.30
2023-03-22T08:08:48.765Z,2.45
2023-03-22T08:11:15.607Z,2.78
2023-03-22T08:13:42.346Z,2.78
2023-03-22T08:16:09.112Z,2.97
2023-03-22T08:18:36.250Z,3.22
2023-03-22T08:21:02.986Z,2.70
2023-03-22T08:23:41.037Z,2.20
2023-03-22T08:26:10.444Z,2.58
2023-03-22T08:28:37.540Z,1.98
2023-03-22T08:31:13.917Z,2.47
2023-03-22T08:33:42.980Z,2.40
2023-03-22T08:36:12.312Z,2.78
2023-03-22T08:38:38.984Z,2.38
2023-03-22T08:41:05.951Z,2.25
2023-03-22T08:43:32.641Z,2.28
2023-03-22T08:45:59.666Z,3.15
2023-03-22T08:48:29.225Z,2.88
2023-03-22T08:50:56.334Z,2.78
2023-03-22T08:53:23.614Z,3.10
2023-03-22T08:55:51.077Z,2.75
2023-03-22T08:58:20.087Z,3.25
2023-03-22T09:00:49.503Z,4.40
2023-03-22T09:03:16.988Z,3.58
2023-03-22T09:05:44.003Z,2.85
2023-03-22T09:08:18.538Z,2.80
2023-03-22T09:10:52.656Z,3.20
2023-03-22T09:13:20.511Z,3.25
2023-03-22T09:15:47.653Z,3.50
2023-03-22T09:18:15.442Z,3.20
2023-03-22T09:20:43.802Z,3.60
2023-03-22T09:23:10.536Z,2.90
2023-03-22T09:25:37.802Z,3.67
2023-03-22T09:28:05.602Z,2.95
2023-03-22T09:30:32.242Z,3.03
2023-03-22T09:32:58.930Z,3.50
2023-03-22T09:35:26.074Z,2.88
2023-03-22T09:37:56.150Z,3.40
2023-03-22T09:40:28.939Z,2.85
2023-03-22T09:42:59.193Z,3.60
2023-03-22T09:45:38.471Z,3.30
2023-03-22T09:48:21.210Z,3.58
2023-03-22T09:50:51.536Z,4.93
2023-03-22T09:53:18.636Z,3.67
2023-03-22T09:55:52.872Z,3.58
2023-03-22T09:58:33.135Z,3.40
2023-03-22T10:01:12.428Z,3.20
2023-03-22T10:04:02.346Z,3.22
2023-03-22T10:06:30.788Z,3.20
2023-03-22T10:09:34.625Z,3.20
2023-03-22T10:12:22.541Z,4.65
2023-03-22T10:14:57.812Z,3.40
2023-03-22T10:17:27.212Z,3.13
2023-03-22T10:19:59.150Z,3.65
2023-03-22T10:22:33.210Z,2.88
2023-03-22T10:25:01.030Z,2.40
2023-03-22T10:27:30.180Z,3.38
2023-03-22T10:30:04.499Z,3.05
2023-03-22T10:32:57.059Z,2.78
2023-03-22T10:35:24.683Z,3.17
2023-03-22T10:37:52.777Z,3.00
2023-03-22T10:40:32.972Z,3.03
2023-03-22T10:43:11.868Z,2.30
2023-03-22T10:45:39.676Z,2.58
2023-03-22T10:48:29.990Z,2.03
2023-03-22T10:50:58.991Z,2.47
2023-03-22T10:53:33.391Z,2.50
2023-03-22T10:56:00.365Z,2.45
2023-03-22T10:58:32.597Z,2.97
2023-03-22T11:01:05.174Z,3.05
2023-03-22T11:03:44.650Z,3.38
2023-03-22T11:06:14.697Z,3.22
2023-03-22T11:08:42.850Z,3.30
2023-03-22T11:11:40.347Z,3.53
2023-03-22T11:14:16.975Z,3.33
2023-03-22T11:16:53.595Z,3.58
2023-03-22T11:19:31.593Z,3.13
2023-03-22T11:22:00.553Z,2.47
2023-03-22T11:24:30.330Z,2.80
2023-03-22T11:27:03.407Z,2.40
2023-03-22T11:29:46.662Z,3.03
2023-03-22T11:32:37.362Z,2.40
2023-03-22T11:35:16.225Z,2.60
2023-03-22T11:37:45.181Z,2.50
2023-03-22T11:40:33.430Z,2.65
2023-03-22T11:43:27.075Z,2.35
2023-03-22T11:48:27.534Z,2.65
2023-03-22T11:50:59.725Z,2.65
2023-03-22T11:53:28.381Z,3.10
2023-03-22T11:55:57.815Z,2.42
2023-03-22T11:58:27.142Z,2.78
2023-03-22T12:01:01.533Z,2.55
2023-03-22T12:03:37.595Z,2.33
2023-03-22T12:06:16.751Z,3.00
2023-03-22T12:08:49.557Z,2.70
2023-03-22T12:11:40.179Z,2.40
2023-03-22T12:14:16.216Z,2.97
2023-03-22T12:17:11.090Z,2.22
2023-03-22T12:20:02.562Z,1.83
2023-03-22T12:22:35.355Z,3.05
2023-03-22T12:25:03.617Z,2.65
2023-03-22T12:27:41.723Z,2.30
2023-03-22T12:30:22.674Z,1.80
2023-03-22T12:32:58.416Z,2.50
2023-03-22T12:35:30.185Z,2.00
2023-03-22T12:38:00.446Z,2.17
2023-03-22T12:40:38.044Z,1.90
2023-03-22T12:43:23.162Z,2.00
2023-03-22T12:45:55.293Z,2.08
2023-03-22T12:48:31.811Z,1.88
2023-03-22T12:51:03.325Z,1.95
2023-03-22T12:53:42.665Z,1.85
2023-03-22T12:56:17.926Z,2.10
2023-03-22T12:58:51.933Z,2.67
2023-03-22T13:01:45.886Z,2.58
2023-03-22T13:04:38.897Z,2.70
2023-03-22T13:07:13.978Z,2.50
2023-03-22T13:09:46.152Z,2.08
2023-03-22T13:12:16.455Z,2.15
2023-03-22T13:14:52.217Z,2.25
2023-03-22T13:17:25.436Z,1.92
2023-03-22T13:20:08.059Z,2.33
2023-03-22T13:22:38.044Z,1.60
2023-03-22T13:25:12.649Z,2.58
2023-03-22T13:27:45.358Z,2.20
2023-03-22T13:30:26.123Z,2.55
2023-03-22T13:33:11.200Z,2.20
2023-03-22T13:35:49.034Z,2.88
2023-03-22T13:38:32.619Z,2.60
2023-03-22T13:43:50.192Z,2.38
2023-03-22T13:46:20.663Z,2.35
2023-03-22T13:48:47.917Z,2.13
2023-03-22T13:51:21.668Z,1.80
2023-03-22T13:54:24.018Z,1.88
2023-03-22T13:57:01.041Z,2.45
2023-03-22T13:59:27.904Z,2.42
2023-03-22T14:01:57.593Z,2.20
2023-03-22T14:04:36.556Z,2.17
2023-03-22T14:07:40.662Z,1.90
2023-03-22T14:10:28.301Z,1.90
2023-03-22T14:12:59.643Z,2.60
2023-03-22T14:15:31.512Z,2.20
2023-03-22T14:18:12.558Z,2.05
2023-03-22T14:20:40.219Z,2.22
